sensor_id;sensor_type;location;lat;lon;timestamp;temperature;humidity
39969;DHT22;25648;47.808;19.004;2022-11-15T00:00:48;14.90;61.40
39969;DHT22;25648;47.808;19.004;2022-11-15T00:03:15;14.90;60.90
39969;DHT22;25648;47.808;19.004;2022-11-15T00:05:41;15.00;61.30
39969;DHT22;25648;47.808;19.004;2022-11-15T00:08:07;15.00;60.80
39969;DHT22;25648;47.808;19.004;2022-11-15T00:10:33;14.80;61.20
39969;DHT22;25648;47.808;19.004;2022-11-15T00:12:58;14.70;61.60
39969;DHT22;25648;47.808;19.004;2022-11-15T00:15:24;14.60;61.80
39969;DHT22;25648;47.808;19.004;2022-11-15T00:17:50;14.50;61.60
39969;DHT22;25648;47.808;19.004;2022-11-15T00:20:17;14.50;61.80
39969;DHT22;25648;47.808;19.004;2022-11-15T00:22:42;14.50;62.10
39969;DHT22;25648;47.808;19.004;2022-11-15T00:25:08;14.60;61.40
39969;DHT22;25648;47.808;19.004;2022-11-15T00:27:34;14.70;61.40
39969;DHT22;25648;47.808;19.004;2022-11-15T00:30:00;14.70;61.30
39969;DHT22;25648;47.808;19.004;2022-11-15T00:32:26;14.60;61.20
39969;DHT22;25648;47.808;19.004;2022-11-15T00:34:51;14.70;61.30
39969;DHT22;25648;47.808;19.004;2022-11-15T00:37:17;14.70;61.30
39969;DHT22;25648;47.808;19.004;2022-11-15T00:39:43;14.80;61.00
39969;DHT22;25648;47.808;19.004;2022-11-15T00:42:08;14.90;60.50
39969;DHT22;25648;47.808;19.004;2022-11-15T00:44:34;14.80;60.80
39969;DHT22;25648;47.808;19.004;2022-11-15T00:46:59;14.60;60.70
39969;DHT22;25648;47.808;19.004;2022-11-15T00:49:25;14.40;61.50
39969;DHT22;25648;47.808;19.004;2022-11-15T00:51:51;14.30;61.40
39969;DHT22;25648;47.808;19.004;2022-11-15T00:54:16;14.20;61.70
39969;DHT22;25648;47.808;19.004;2022-11-15T00:56:42;14.40;61.10
39969;DHT22;25648;47.808;19.004;2022-11-15T00:59:07;14.50;60.90
39969;DHT22;25648;47.808;19.004;2022-11-15T01:01:33;14.40;61.60
39969;DHT22;25648;47.808;19.004;2022-11-15T01:03:59;14.30;61.50
39969;DHT22;25648;47.808;19.004;2022-11-15T01:06:24;14.20;61.60
39969;DHT22;25648;47.808;19.004;2022-11-15T01:08:50;14.30;61.40
39969;DHT22;25648;47.808;19.004;2022-11-15T01:11:16;14.30;61.20
39969;DHT22;25648;47.808;19.004;2022-11-15T01:13:41;14.30;61.70
39969;DHT22;25648;47.808;19.004;2022-11-15T01:16:14;14.30;61.50
39969;DHT22;25648;47.808;19.004;2022-11-15T01:18:42;14.50;61.00
39969;DHT22;25648;47.808;19.004;2022-11-15T01:21:14;14.30;61.20
39969;DHT22;25648;47.808;19.004;2022-11-15T01:23:40;13.90;61.80
39969;DHT22;25648;47.808;19.004;2022-11-15T01:26:09;13.60;62.50
39969;DHT22;25648;47.808;19.004;2022-11-15T01:28:36;12.90;64.60
39969;DHT22;25648;47.808;19.004;2022-11-15T01:31:04;12.70;66.10
39969;DHT22;25648;47.808;19.004;2022-11-15T01:33:30;13.00;65.50
39969;DHT22;25648;47.808;19.004;2022-11-15T01:35:56;13.50;64.40
39969;DHT22;25648;47.808;19.004;2022-11-15T01:38:22;13.80;63.50
39969;DHT22;25648;47.808;19.004;2022-11-15T01:40:48;14.00;62.70
39969;DHT22;25648;47.808;19.004;2022-11-15T01:45:54;14.20;62.00
39969;DHT22;25648;47.808;19.004;2022-11-15T01:48:22;14.40;61.30
39969;DHT22;25648;47.808;19.004;2022-11-15T01:50:51;14.30;61.60
39969;DHT22;25648;47.808;19.004;2022-11-15T01:53:18;14.20;61.70
39969;DHT22;25648;47.808;19.004;2022-11-15T01:55:45;14.20;61.50
39969;DHT22;25648;47.808;19.004;2022-11-15T01:58:11;14.00;62.10
39969;DHT22;25648;47.808;19.004;2022-11-15T02:00:36;13.90;62.20
39969;DHT22;25648;47.808;19.004;2022-11-15T02:03:02;13.90;62.60
39969;DHT22;25648;47.808;19.004;2022-11-15T02:05:30;14.00;62.70
39969;DHT22;25648;47.808;19.004;2022-11-15T02:07:56;14.20;61.80
39969;DHT22;25648;47.808;19.004;2022-11-15T02:10:24;14.20;61.30
39969;DHT22;25648;47.808;19.004;2022-11-15T02:12:50;14.30;61.70
39969;DHT22;25648;47.808;19.004;2022-11-15T02:15:17;14.30;61.40
39969;DHT22;25648;47.808;19.004;2022-11-15T02:26:30;14.50;61.00
39969;DHT22;25648;47.808;19.004;2022-11-15T02:32:00;14.20;61.90
39969;DHT22;25648;47.808;19.004;2022-11-15T02:42:23;14.20;61.50
39969;DHT22;25648;47.808;19.004;2022-11-15T02:45:23;14.10;61.80
39969;DHT22;25648;47.808;19.004;2022-11-15T02:47:52;14.10;62.20
39969;DHT22;25648;47.808;19.004;2022-11-15T02:50:21;14.20;62.00
39969;DHT22;25648;47.808;19.004;2022-11-15T02:52:49;14.40;61.80
39969;DHT22;25648;47.808;19.004;2022-11-15T03:00:56;14.50;61.50
39969;DHT22;25648;47.808;19.004;2022-11-15T03:09:33;14.50;61.30
39969;DHT22;25648;47.808;19.004;2022-11-15T03:12:22;14.50;61.50
39969;DHT22;25648;47.808;19.004;2022-11-15T03:15:00;14.70;61.40
39969;DHT22;25648;47.808;19.004;2022-11-15T03:17:28;14.70;61.10
39969;DHT22;25648;47.808;19.004;2022-11-15T03:19:57;14.70;61.50
39969;DHT22;25648;47.808;19.004;2022-11-15T03:22:26;14.90;60.90
39969;DHT22;25648;47.808;19.004;2022-11-15T03:25:00;14.80;60.60
39969;DHT22;25648;47.808;19.004;2022-11-15T03:27:33;14.70;60.30
39969;DHT22;25648;47.808;19.004;2022-11-15T03:30:05;14.30;62.00
39969;DHT22;25648;47.808;19.004;2022-11-15T03:32:35;13.90;62.50
39969;DHT22;25648;47.808;19.004;2022-11-15T03:35:07;13.50;64.30
39969;DHT22;25648;47.808;19.004;2022-11-15T03:37:41;13.80;63.70
39969;DHT22;25648;47.808;19.004;2022-11-15T03:40:10;14.10;62.80
39969;DHT22;25648;47.808;19.004;2022-11-15T03:45:31;13.40;64.10
39969;DHT22;25648;47.808;19.004;2022-11-15T03:48:02;13.50;63.80
39969;DHT22;25648;47.808;19.004;2022-11-15T03:50:30;13.20;64.80
39969;DHT22;25648;47.808;19.004;2022-11-15T03:53:10;12.40;67.10
39969;DHT22;25648;47.808;19.004;2022-11-15T03:55:39;12.80;66.80
39969;DHT22;25648;47.808;19.004;2022-11-15T03:58:05;13.20;66.20
39969;DHT22;25648;47.808;19.004;2022-11-15T04:00:32;13.60;65.10
39969;DHT22;25648;47.808;19.004;2022-11-15T04:02:58;14.10;63.80
39969;DHT22;25648;47.808;19.004;2022-11-15T04:05:24;14.50;62.50
39969;DHT22;25648;47.808;19.004;2022-11-15T04:07:49;14.80;61.80
39969;DHT22;25648;47.808;19.004;2022-11-15T04:10:15;14.90;61.10
39969;DHT22;25648;47.808;19.004;2022-11-15T04:12:43;14.90;61.20
39969;DHT22;25648;47.808;19.004;2022-11-15T04:15:16;14.90;60.80
39969;DHT22;25648;47.808;19.004;2022-11-15T04:17:53;15.00;61.10
39969;DHT22;25648;47.808;19.004;2022-11-15T04:20:24;15.00;61.00
39969;DHT22;25648;47.808;19.004;2022-11-15T04:23:27;14.90;61.10
39969;DHT22;25648;47.808;19.004;2022-11-15T04:26:31;15.00;60.80
39969;DHT22;25648;47.808;19.004;2022-11-15T04:28:56;14.80;61.00
39969;DHT22;25648;47.808;19.004;2022-11-15T04:31:40;14.80;61.10
39969;DHT22;25648;47.808;19.004;2022-11-15T04:34:07;14.00;63.00
39969;DHT22;25648;47.808;19.004;2022-11-15T04:36:33;13.90;64.00
39969;DHT22;25648;47.808;19.004;2022-11-15T04:39:17;13.90;63.60
39969;DHT22;25648;47.808;19.004;2022-11-15T04:42:05;14.00;63.60
39969;DHT22;25648;47.808;19.004;2022-11-15T04:44:31;14.20;63.30
39969;DHT22;25648;47.808;19.004;2022-11-15T04:46:57;14.20;63.00
39969;DHT22;25648;47.808;19.004;2022-11-15T04:49:22;14.20;63.40
39969;DHT22;25648;47.808;19.004;2022-11-15T04:51:48;14.40;63.00
39969;DHT22;25648;47.808;19.004;2022-11-15T04:54:14;14.40;62.40
39969;DHT22;25648;47.808;19.004;2022-11-15T04:56:39;13.50;64.20
39969;DHT22;25648;47.808;19.004;2022-11-15T04:59:05;13.00;67.10
39969;DHT22;25648;47.808;19.004;2022-11-15T05:01:31;12.90;66.90
39969;DHT22;25648;47.808;19.004;2022-11-15T05:03:57;13.10;66.40
39969;DHT22;25648;47.808;19.004;2022-11-15T05:06:41;13.60;66.10
39969;DHT22;25648;47.808;19.004;2022-11-15T05:09:06;14.10;63.90
39969;DHT22;25648;47.808;19.004;2022-11-15T05:11:32;13.50;64.80
39969;DHT22;25648;47.808;19.004;2022-11-15T05:13:58;13.20;66.50
39969;DHT22;25648;47.808;19.004;2022-11-15T05:16:23;13.40;66.90
39969;DHT22;25648;47.808;19.004;2022-11-15T05:18:53;13.80;65.30
39969;DHT22;25648;47.808;19.004;2022-11-15T05:21:20;14.40;64.40
39969;DHT22;25648;47.808;19.004;2022-11-15T05:23:46;14.60;63.50
39969;DHT22;25648;47.808;19.004;2022-11-15T05:26:11;14.90;62.80
39969;DHT22;25648;47.808;19.004;2022-11-15T05:28:39;15.20;62.10
39969;DHT22;25648;47.808;19.004;2022-11-15T05:31:13;15.30;61.50
39969;DHT22;25648;47.808;19.004;2022-11-15T05:33:40;15.40;61.50
39969;DHT22;25648;47.808;19.004;2022-11-15T05:39:01;15.30;61.30
39969;DHT22;25648;47.808;19.004;2022-11-15T05:41:33;15.20;61.40
39969;DHT22;25648;47.808;19.004;2022-11-15T05:44:00;15.30;61.40
39969;DHT22;25648;47.808;19.004;2022-11-15T05:46:27;15.20;61.50
39969;DHT22;25648;47.808;19.004;2022-11-15T05:48:53;15.10;62.00
39969;DHT22;25648;47.808;19.004;2022-11-15T05:51:21;15.20;61.60
39969;DHT22;25648;47.808;19.004;2022-11-15T05:53:48;14.80;62.50
39969;DHT22;25648;47.808;19.004;2022-11-15T05:56:14;14.40;63.80
39969;DHT22;25648;47.808;19.004;2022-11-15T05:58:40;14.50;63.90
39969;DHT22;25648;47.808;19.004;2022-11-15T06:01:07;14.90;63.60
39969;DHT22;25648;47.808;19.004;2022-11-15T06:03:33;15.20;62.00
39969;DHT22;25648;47.808;19.004;2022-11-15T06:05:59;15.40;61.80
39969;DHT22;25648;47.808;19.004;2022-11-15T06:08:24;15.50;61.40
39969;DHT22;25648;47.808;19.004;2022-11-15T06:10:50;15.60;61.10
39969;DHT22;25648;47.808;19.004;2022-11-15T06:13:15;15.70;60.80
39969;DHT22;25648;47.808;19.004;2022-11-15T06:15:41;15.70;60.80
39969;DHT22;25648;47.808;19.004;2022-11-15T06:18:07;15.80;60.70
39969;DHT22;25648;47.808;19.004;2022-11-15T06:20:32;15.90;60.50
39969;DHT22;25648;47.808;19.004;2022-11-15T06:22:59;16.00;60.20
39969;DHT22;25648;47.808;19.004;2022-11-15T06:25:27;16.00;60.80
39969;DHT22;25648;47.808;19.004;2022-11-15T06:27:56;16.00;59.80
39969;DHT22;25648;47.808;19.004;2022-11-15T06:30:23;16.00;60.20
39969;DHT22;25648;47.808;19.004;2022-11-15T06:32:49;16.10;60.10
39969;DHT22;25648;47.808;19.004;2022-11-15T06:35:15;16.10;60.20
39969;DHT22;25648;47.808;19.004;2022-11-15T06:37:41;16.10;60.20
39969;DHT22;25648;47.808;19.004;2022-11-15T06:40:08;16.00;60.30
39969;DHT22;25648;47.808;19.004;2022-11-15T06:42:34;15.90;60.40
39969;DHT22;25648;47.808;19.004;2022-11-15T06:45:00;15.90;60.60
39969;DHT22;25648;47.808;19.004;2022-11-15T06:47:26;16.00;60.60
39969;DHT22;25648;47.808;19.004;2022-11-15T06:49:51;16.00;60.60
39969;DHT22;25648;47.808;19.004;2022-11-15T06:52:17;16.00;60.50
39969;DHT22;25648;47.808;19.004;2022-11-15T06:54:47;15.70;60.90
39969;DHT22;25648;47.808;19.004;2022-11-15T06:57:13;15.60;61.70
39969;DHT22;25648;47.808;19.004;2022-11-15T06:59:38;15.70;61.20
39969;DHT22;25648;47.808;19.004;2022-11-15T07:02:04;15.90;60.90
39969;DHT22;25648;47.808;19.004;2022-11-15T07:04:30;15.80;60.90
39969;DHT22;25648;47.808;19.004;2022-11-15T07:06:56;15.70;61.40
39969;DHT22;25648;47.808;19.004;2022-11-15T07:09:21;15.50;61.70
39969;DHT22;25648;47.808;19.004;2022-11-15T07:11:47;15.60;61.80
39969;DHT22;25648;47.808;19.004;2022-11-15T07:14:13;15.70;61.60
39969;DHT22;25648;47.808;19.004;2022-11-15T07:16:38;15.80;61.30
39969;DHT22;25648;47.808;19.004;2022-11-15T07:19:05;15.90;60.80
39969;DHT22;25648;47.808;19.004;2022-11-15T07:21:30;16.00;61.20
39969;DHT22;25648;47.808;19.004;2022-11-15T07:23:57;16.00;60.80
39969;DHT22;25648;47.808;19.004;2022-11-15T07:26:23;16.10;60.30
39969;DHT22;25648;47.808;19.004;2022-11-15T07:28:49;16.00;60.70
39969;DHT22;25648;47.808;19.004;2022-11-15T07:31:14;15.90;61.10
39969;DHT22;25648;47.808;19.004;2022-11-15T07:33:40;16.10;60.60
39969;DHT22;25648;47.808;19.004;2022-11-15T07:36:06;16.10;60.80
39969;DHT22;25648;47.808;19.004;2022-11-15T07:38:33;16.00;61.30
39969;DHT22;25648;47.808;19.004;2022-11-15T07:41:03;16.00;60.80
39969;DHT22;25648;47.808;19.004;2022-11-15T07:43:29;15.90;61.30
39969;DHT22;25648;47.808;19.004;2022-11-15T07:45:55;15.90;61.10
39969;DHT22;25648;47.808;19.004;2022-11-15T07:48:22;15.80;61.90
39969;DHT22;25648;47.808;19.004;2022-11-15T07:50:48;15.80;61.90
39969;DHT22;25648;47.808;19.004;2022-11-15T07:53:14;15.90;61.70
39969;DHT22;25648;47.808;19.004;2022-11-15T07:55:41;16.00;61.60
39969;DHT22;25648;47.808;19.004;2022-11-15T07:58:09;16.10;61.20
39969;DHT22;25648;47.808;19.004;2022-11-15T08:00:35;16.20;61.10
39969;DHT22;25648;47.808;19.004;2022-11-15T08:03:12;16.30;60.80
39969;DHT22;25648;47.808;19.004;2022-11-15T08:05:39;16.30;61.00
39969;DHT22;25648;47.808;19.004;2022-11-15T08:08:06;16.30;61.20
39969;DHT22;25648;47.808;19.004;2022-11-15T08:10:32;16.20;61.60
39969;DHT22;25648;47.808;19.004;2022-11-15T08:13:02;15.90;61.80
39969;DHT22;25648;47.808;19.004;2022-11-15T08:15:28;15.60;62.90
39969;DHT22;25648;47.808;19.004;2022-11-15T08:17:58;15.60;62.90
39969;DHT22;25648;47.808;19.004;2022-11-15T08:20:27;15.70;62.60
39969;DHT22;25648;47.808;19.004;2022-11-15T08:22:57;15.90;62.70
39969;DHT22;25648;47.808;19.004;2022-11-15T08:25:24;16.10;62.10
39969;DHT22;25648;47.808;19.004;2022-11-15T08:27:56;16.20;61.10
39969;DHT22;25648;47.808;19.004;2022-11-15T08:30:22;15.80;61.90
39969;DHT22;25648;47.808;19.004;2022-11-15T08:32:49;15.40;63.00
39969;DHT22;25648;47.808;19.004;2022-11-15T08:35:15;15.60;62.90
39969;DHT22;25648;47.808;19.004;2022-11-15T08:37:40;15.90;62.20
39969;DHT22;25648;47.808;19.004;2022-11-15T08:40:07;15.90;62.20
39969;DHT22;25648;47.808;19.004;2022-11-15T08:42:32;15.90;62.70
39969;DHT22;25648;47.808;19.004;2022-11-15T08:44:58;16.00;62.80
39969;DHT22;25648;47.808;19.004;2022-11-15T08:47:24;16.20;62.40
39969;DHT22;25648;47.808;19.004;2022-11-15T08:49:50;15.80;62.90
39969;DHT22;25648;47.808;19.004;2022-11-15T08:52:16;15.30;64.10
39969;DHT22;25648;47.808;19.004;2022-11-15T08:54:41;15.20;65.10
39969;DHT22;25648;47.808;19.004;2022-11-15T08:57:07;15.60;63.90
39969;DHT22;25648;47.808;19.004;2022-11-15T08:59:35;15.90;63.70
39969;DHT22;25648;47.808;19.004;2022-11-15T09:02:01;16.10;62.80
39969;DHT22;25648;47.808;19.004;2022-11-15T09:04:27;15.90;62.90
39969;DHT22;25648;47.808;19.004;2022-11-15T09:06:53;15.40;64.60
39969;DHT22;25648;47.808;19.004;2022-11-15T09:09:19;15.00;65.30
39969;DHT22;25648;47.808;19.004;2022-11-15T09:11:45;14.80;66.40
39969;DHT22;25648;47.808;19.004;2022-11-15T09:14:11;15.00;66.10
39969;DHT22;25648;47.808;19.004;2022-11-15T09:16:37;15.20;65.40
39969;DHT22;25648;47.808;19.004;2022-11-15T09:19:06;15.30;65.20
39969;DHT22;25648;47.808;19.004;2022-11-15T09:21:32;15.30;65.30
39969;DHT22;25648;47.808;19.004;2022-11-15T09:23:58;15.40;65.70
39969;DHT22;25648;47.808;19.004;2022-11-15T09:26:24;15.80;65.30
39969;DHT22;25648;47.808;19.004;2022-11-15T09:28:50;16.00;64.20
39969;DHT22;25648;47.808;19.004;2022-11-15T09:31:16;16.10;64.30
39969;DHT22;25648;47.808;19.004;2022-11-15T09:33:45;15.90;65.00
39969;DHT22;25648;47.808;19.004;2022-11-15T09:36:12;15.80;65.40
39969;DHT22;25648;47.808;19.004;2022-11-15T09:38:38;15.90;64.70
39969;DHT22;25648;47.808;19.004;2022-11-15T09:48:59;15.60;66.40
39969;DHT22;25648;47.808;19.004;2022-11-15T09:51:30;16.00;65.00
39969;DHT22;25648;47.808;19.004;2022-11-15T09:56:35;16.30;63.90
39969;DHT22;25648;47.808;19.004;2022-11-15T10:01:39;16.20;64.60
39969;DHT22;25648;47.808;19.004;2022-11-15T10:04:07;16.40;64.00
39969;DHT22;25648;47.808;19.004;2022-11-15T10:06:38;16.40;63.50
39969;DHT22;25648;47.808;19.004;2022-11-15T10:11:36;16.70;63.30
39969;DHT22;25648;47.808;19.004;2022-11-15T10:14:24;16.80;63.00
39969;DHT22;25648;47.808;19.004;2022-11-15T10:22:21;17.10;62.70
39969;DHT22;25648;47.808;19.004;2022-11-15T10:24:50;17.30;62.30
39969;DHT22;25648;47.808;19.004;2022-11-15T10:27:18;17.20;62.60
39969;DHT22;25648;47.808;19.004;2022-11-15T10:29:46;17.00;63.00
39969;DHT22;25648;47.808;19.004;2022-11-15T10:32:14;17.10;62.30
39969;DHT22;25648;47.808;19.004;2022-11-15T10:34:39;16.90;63.00
39969;DHT22;25648;47.808;19.004;2022-11-15T10:37:05;16.90;62.90
39969;DHT22;25648;47.808;19.004;2022-11-15T10:39:31;17.10;62.30
39969;DHT22;25648;47.808;19.004;2022-11-15T10:42:17;17.10;62.40
39969;DHT22;25648;47.808;19.004;2022-11-15T10:44:44;17.20;61.90
39969;DHT22;25648;47.808;19.004;2022-11-15T10:47:28;17.20;62.40
39969;DHT22;25648;47.808;19.004;2022-11-15T10:50:03;17.30;61.80
39969;DHT22;25648;47.808;19.004;2022-11-15T10:52:31;17.40;61.90
39969;DHT22;25648;47.808;19.004;2022-11-15T10:57:38;17.20;61.90
39969;DHT22;25648;47.808;19.004;2022-11-15T11:00:29;17.20;62.20
39969;DHT22;25648;47.808;19.004;2022-11-15T11:02:59;17.20;61.70
39969;DHT22;25648;47.808;19.004;2022-11-15T11:05:36;17.30;62.20
39969;DHT22;25648;47.808;19.004;2022-11-15T11:08:19;17.30;61.80
39969;DHT22;25648;47.808;19.004;2022-11-15T11:10:56;17.40;62.00
39969;DHT22;25648;47.808;19.004;2022-11-15T11:13:29;17.30;62.10
39969;DHT22;25648;47.808;19.004;2022-11-15T11:18:38;17.10;62.50
39969;DHT22;25648;47.808;19.004;2022-11-15T11:21:14;17.00;62.00
39969;DHT22;25648;47.808;19.004;2022-11-15T11:23:53;16.70;62.90
39969;DHT22;25648;47.808;19.004;2022-11-15T11:26:40;16.60;63.20
39969;DHT22;25648;47.808;19.004;2022-11-15T11:35:14;16.70;63.60
39969;DHT22;25648;47.808;19.004;2022-11-15T11:40:59;16.60;63.70
39969;DHT22;25648;47.808;19.004;2022-11-15T11:46:33;16.40;64.40
39969;DHT22;25648;47.808;19.004;2022-11-15T11:49:09;16.40;64.30
39969;DHT22;25648;47.808;19.004;2022-11-15T11:51:40;16.30;64.20
39969;DHT22;25648;47.808;19.004;2022-11-15T11:54:19;16.30;65.00
39969;DHT22;25648;47.808;19.004;2022-11-15T11:56:47;16.60;64.00
39969;DHT22;25648;47.808;19.004;2022-11-15T12:01:57;16.70;63.70
39969;DHT22;25648;47.808;19.004;2022-11-15T12:04:36;16.70;63.90
39969;DHT22;25648;47.808;19.004;2022-11-15T12:07:15;16.80;64.10
39969;DHT22;25648;47.808;19.004;2022-11-15T12:10:16;16.90;63.70
39969;DHT22;25648;47.808;19.004;2022-11-15T12:15:20;16.90;63.30
39969;DHT22;25648;47.808;19.004;2022-11-15T12:17:48;16.90;63.80
39969;DHT22;25648;47.808;19.004;2022-11-15T12:20:22;17.00;63.20
39969;DHT22;25648;47.808;19.004;2022-11-15T12:28:48;17.20;63.10
39969;DHT22;25648;47.808;19.004;2022-11-15T12:36:45;17.40;62.40
39969;DHT22;25648;47.808;19.004;2022-11-15T12:39:12;17.50;61.90
39969;DHT22;25648;47.808;19.004;2022-11-15T12:41:40;17.50;62.50
39969;DHT22;25648;47.808;19.004;2022-11-15T12:44:55;17.60;62.20
39969;DHT22;25648;47.808;19.004;2022-11-15T12:59:53;17.80;61.80
39969;DHT22;25648;47.808;19.004;2022-11-15T13:02:40;17.80;62.10
39969;DHT22;25648;47.808;19.004;2022-11-15T13:17:45;16.80;64.60
39969;DHT22;25648;47.808;19.004;2022-11-15T13:27:49;16.00;66.40
39969;DHT22;25648;47.808;19.004;2022-11-15T13:30:27;16.20;65.60
39969;DHT22;25648;47.808;19.004;2022-11-15T13:32:54;16.30;65.20
39969;DHT22;25648;47.808;19.004;2022-11-15T13:35:26;16.00;66.00
39969;DHT22;25648;47.808;19.004;2022-11-15T13:37:54;15.90;65.60
39969;DHT22;25648;47.808;19.004;2022-11-15T13:40:29;16.10;65.90
39969;DHT22;25648;47.808;19.004;2022-11-15T13:42:59;16.30;65.20
39969;DHT22;25648;47.808;19.004;2022-11-15T13:45:39;16.40;65.10
39969;DHT22;25648;47.808;19.004;2022-11-15T13:48:05;16.10;65.90
39969;DHT22;25648;47.808;19.004;2022-11-15T13:50:35;16.00;65.70
39969;DHT22;25648;47.808;19.004;2022-11-15T13:53:03;15.90;66.30
39969;DHT22;25648;47.808;19.004;2022-11-15T13:55:31;15.90;66.00
39969;DHT22;25648;47.808;19.004;2022-11-15T13:58:03;15.80;66.30
39969;DHT22;25648;47.808;19.004;2022-11-15T14:03:17;15.70;67.10
39969;DHT22;25648;47.808;19.004;2022-11-15T14:05:46;16.00;66.10
39969;DHT22;25648;47.808;19.004;2022-11-15T14:08:27;16.40;65.50
39969;DHT22;25648;47.808;19.004;2022-11-15T14:13:39;16.50;64.20
39969;DHT22;25648;47.808;19.004;2022-11-15T14:16:17;16.50;65.00
39969;DHT22;25648;47.808;19.004;2022-11-15T14:18:49;16.20;65.50
39969;DHT22;25648;47.808;19.004;2022-11-15T14:21:15;16.10;64.90
39969;DHT22;25648;47.808;19.004;2022-11-15T14:23:41;15.90;65.80
39969;DHT22;25648;47.808;19.004;2022-11-15T14:26:33;15.60;66.40
39969;DHT22;25648;47.808;19.004;2022-11-15T14:29:24;15.60;66.70
39969;DHT22;25648;47.808;19.004;2022-11-15T14:31:50;15.50;67.20
39969;DHT22;25648;47.808;19.004;2022-11-15T14:34:16;15.80;65.90
39969;DHT22;25648;47.808;19.004;2022-11-15T14:36:41;15.80;65.70
39969;DHT22;25648;47.808;19.004;2022-11-15T14:39:08;15.70;66.20
39969;DHT22;25648;47.808;19.004;2022-11-15T14:41:36;16.00;65.30
39969;DHT22;25648;47.808;19.004;2022-11-15T14:44:05;16.30;64.80
39969;DHT22;25648;47.808;19.004;2022-11-15T14:46:31;16.40;63.80
39969;DHT22;25648;47.808;19.004;2022-11-15T14:48:57;16.30;64.50
39969;DHT22;25648;47.808;19.004;2022-11-15T14:51:23;16.30;64.40
39969;DHT22;25648;47.808;19.004;2022-11-15T14:53:49;16.50;64.30
39969;DHT22;25648;47.808;19.004;2022-11-15T14:56:18;16.70;63.70
39969;DHT22;25648;47.808;19.004;2022-11-15T14:58:45;16.80;63.90
39969;DHT22;25648;47.808;19.004;2022-11-15T15:01:20;16.80;63.40
39969;DHT22;25648;47.808;19.004;2022-11-15T15:03:46;16.60;63.60
39969;DHT22;25648;47.808;19.004;2022-11-15T15:06:12;16.70;63.50
39969;DHT22;25648;47.808;19.004;2022-11-15T15:08:42;16.80;63.20
39969;DHT22;25648;47.808;19.004;2022-11-15T15:11:15;16.80;62.80
39969;DHT22;25648;47.808;19.004;2022-11-15T15:13:42;16.80;62.80
39969;DHT22;25648;47.808;19.004;2022-11-15T15:16:07;16.90;62.70
39969;DHT22;25648;47.808;19.004;2022-11-15T15:18:33;16.90;62.70
39969;DHT22;25648;47.808;19.004;2022-11-15T15:21:00;17.00;62.10
39969;DHT22;25648;47.808;19.004;2022-11-15T15:23:28;17.00;62.50
39969;DHT22;25648;47.808;19.004;2022-11-15T15:25:56;17.00;62.70
39969;DHT22;25648;47.808;19.004;2022-11-15T15:28:22;17.20;62.20
39969;DHT22;25648;47.808;19.004;2022-11-15T15:30:48;17.00;62.90
39969;DHT22;25648;47.808;19.004;2022-11-15T15:33:15;17.00;62.70
39969;DHT22;25648;47.808;19.004;2022-11-15T15:35:41;17.00;62.60
39969;DHT22;25648;47.808;19.004;2022-11-15T15:38:12;17.00;62.80
39969;DHT22;25648;47.808;19.004;2022-11-15T15:40:38;17.00;62.60
39969;DHT22;25648;47.808;19.004;2022-11-15T15:43:04;17.10;62.70
39969;DHT22;25648;47.808;19.004;2022-11-15T15:45:37;17.20;62.00
39969;DHT22;25648;47.808;19.004;2022-11-15T15:48:04;17.20;61.70
39969;DHT22;25648;47.808;19.004;2022-11-15T15:50:34;16.90;62.80
39969;DHT22;25648;47.808;19.004;2022-11-15T15:53:02;16.60;62.70
39969;DHT22;25648;47.808;19.004;2022-11-15T15:55:29;16.60;63.50
39969;DHT22;25648;47.808;19.004;2022-11-15T15:57:55;16.60;62.90
39969;DHT22;25648;47.808;19.004;2022-11-15T16:00:21;16.60;63.10
39969;DHT22;25648;47.808;19.004;2022-11-15T16:02:49;16.50;63.30
39969;DHT22;25648;47.808;19.004;2022-11-15T16:05:15;16.50;63.40
39969;DHT22;25648;47.808;19.004;2022-11-15T16:07:41;16.60;63.40
39969;DHT22;25648;47.808;19.004;2022-11-15T16:12:43;16.50;63.20
39969;DHT22;25648;47.808;19.004;2022-11-15T16:15:09;16.60;63.50
39969;DHT22;25648;47.808;19.004;2022-11-15T16:17:38;16.80;62.50
39969;DHT22;25648;47.808;19.004;2022-11-15T16:20:05;16.70;62.80
39969;DHT22;25648;47.808;19.004;2022-11-15T16:22:31;16.80;62.80
39969;DHT22;25648;47.808;19.004;2022-11-15T16:24:57;16.80;63.10
39969;DHT22;25648;47.808;19.004;2022-11-15T16:27:23;16.80;63.20
39969;DHT22;25648;47.808;19.004;2022-11-15T16:29:49;16.80;62.30
39969;DHT22;25648;47.808;19.004;2022-11-15T16:32:16;16.50;63.00
39969;DHT22;25648;47.808;19.004;2022-11-15T16:34:42;16.50;63.40
39969;DHT22;25648;47.808;19.004;2022-11-15T16:37:21;16.50;63.10
39969;DHT22;25648;47.808;19.004;2022-11-15T16:39:47;16.20;63.70
39969;DHT22;25648;47.808;19.004;2022-11-15T16:42:13;16.10;64.50
39969;DHT22;25648;47.808;19.004;2022-11-15T16:44:39;16.30;63.50
39969;DHT22;25648;47.808;19.004;2022-11-15T16:47:04;16.60;63.00
39969;DHT22;25648;47.808;19.004;2022-11-15T16:49:30;16.70;63.00
39969;DHT22;25648;47.808;19.004;2022-11-15T16:51:56;16.80;62.50
39969;DHT22;25648;47.808;19.004;2022-11-15T16:54:21;16.80;62.60
39969;DHT22;25648;47.808;19.004;2022-11-15T16:56:47;16.80;62.90
39969;DHT22;25648;47.808;19.004;2022-11-15T16:59:16;16.80;63.00
39969;DHT22;25648;47.808;19.004;2022-11-15T17:01:42;16.90;62.70
39969;DHT22;25648;47.808;19.004;2022-11-15T17:04:15;16.80;62.60
39969;DHT22;25648;47.808;19.004;2022-11-15T17:06:43;16.70;62.90
39969;DHT22;25648;47.808;19.004;2022-11-15T17:09:18;16.70;63.00
39969;DHT22;25648;47.808;19.004;2022-11-15T17:11:44;16.60;62.90
39969;DHT22;25648;47.808;19.004;2022-11-15T17:14:10;16.40;63.70
39969;DHT22;25648;47.808;19.004;2022-11-15T17:16:36;16.50;63.40
39969;DHT22;25648;47.808;19.004;2022-11-15T17:19:13;16.50;63.30
39969;DHT22;25648;47.808;19.004;2022-11-15T17:21:41;16.60;63.40
39969;DHT22;25648;47.808;19.004;2022-11-15T17:24:07;16.80;62.60
39969;DHT22;25648;47.808;19.004;2022-11-15T17:26:33;16.90;62.80
39969;DHT22;25648;47.808;19.004;2022-11-15T17:28:58;17.10;62.00
39969;DHT22;25648;47.808;19.004;2022-11-15T17:31:26;17.20;61.80
39969;DHT22;25648;47.808;19.004;2022-11-15T17:33:52;17.10;62.10
39969;DHT22;25648;47.808;19.004;2022-11-15T17:36:17;17.00;62.10
39969;DHT22;25648;47.808;19.004;2022-11-15T17:38:43;17.00;62.20
39969;DHT22;25648;47.808;19.004;2022-11-15T17:41:15;17.00;62.20